createdAt,value
2023-03-06T02:27:37.853Z,587.00
2023-03-06T02:28:37.837Z,587.00
2023-03-06T02:29:37.893Z,586.00
2023-03-06T02:30:37.954Z,586.00
2023-03-06T02:31:37.997Z,587.00
2023-03-06T02:55:38.389Z,588.00
2023-03-06T02:56:38.384Z,591.00
2023-03-06T02:57:38.386Z,587.00
2023-03-06T02:58:38.397Z,587.00
2023-03-06T02:59:38.376Z,585.00
2023-03-06T03:00:39.952Z,586.00
2023-03-06T03:01:38.437Z,586.00
2023-03-06T03:02:38.422Z,588.00
2023-03-06T03:03:38.401Z,588.00
2023-03-06T03:04:38.474Z,590.00
2023-03-06T03:05:38.433Z,588.00
2023-03-06T03:06:38.422Z,589.00
2023-03-06T03:07:38.416Z,588.00
2023-03-06T03:08:38.425Z,588.00
2023-03-06T03:09:38.439Z,586.00
2023-03-06T03:10:38.464Z,586.00
2023-03-06T03:11:38.458Z,582.00
2023-03-06T03:12:38.442Z,582.00
2023-03-06T03:13:38.633Z,582.00
2023-03-06T03:14:38.460Z,583.00
2023-03-06T03:15:38.528Z,586.00
2023-03-06T03:16:39.262Z,588.00
2023-03-06T03:17:38.491Z,590.00
2023-03-06T03:18:38.503Z,590.00
2023-03-06T03:19:38.505Z,590.00
2023-03-06T03:20:38.492Z,591.00
2023-03-06T03:21:38.472Z,592.00
2023-03-06T03:22:38.494Z,594.00
2023-03-06T03:23:38.511Z,592.00
2023-03-06T03:24:38.530Z,593.00
2023-03-06T03:25:38.509Z,593.00
2023-03-06T03:26:38.508Z,593.00
2023-03-06T03:27:38.543Z,592.00
2023-03-06T03:28:38.546Z,591.00
2023-03-06T03:29:38.569Z,592.00
2023-03-06T03:30:38.552Z,590.00
2023-03-06T03:31:38.599Z,592.00
2023-03-06T03:32:38.574Z,594.00
2023-03-06T03:33:38.636Z,594.00
2023-03-06T03:34:38.581Z,593.00
2023-03-06T03:35:38.609Z,593.00
2023-03-06T03:36:38.595Z,594.00
2023-03-06T03:37:38.611Z,591.00
2023-03-06T03:38:38.643Z,591.00
2023-03-06T03:39:38.667Z,593.00
2023-03-06T03:40:38.734Z,592.00
2023-03-06T03:41:38.785Z,596.00
2023-03-06T03:42:38.869Z,596.00
2023-03-06T03:43:38.923Z,593.00
2023-03-06T03:44:38.968Z,594.00
2023-03-06T03:45:39.048Z,595.00
2023-03-06T03:46:39.100Z,594.00
2023-03-06T03:47:39.145Z,593.00
2023-03-06T03:48:39.153Z,594.00
2023-03-06T03:49:39.187Z,592.00
2023-03-06T03:50:39.172Z,594.00
2023-03-06T03:51:39.204Z,594.00
2023-03-06T03:52:39.148Z,593.00
2023-03-06T03:53:39.172Z,594.00
2023-03-06T03:54:39.165Z,595.00
2023-03-06T03:55:39.181Z,597.00
2023-03-06T03:56:39.197Z,597.00
2023-03-06T03:57:39.160Z,598.00
2023-03-06T03:58:39.180Z,598.00
2023-03-06T03:59:39.194Z,599.00
2023-03-06T04:00:39.177Z,596.00
2023-03-06T04:01:39.857Z,597.00
2023-03-06T04:02:39.261Z,596.00
2023-03-06T04:03:39.319Z,593.00
2023-03-06T04:04:39.402Z,593.00
2023-03-06T04:05:39.443Z,594.00
2023-03-06T04:06:39.473Z,596.00
2023-03-06T04:07:39.533Z,594.00
2023-03-06T04:08:39.614Z,594.00
2023-03-06T04:09:39.597Z,595.00
2023-03-06T04:10:39.659Z,594.00
2023-03-06T04:11:39.664Z,593.00
2023-03-06T04:12:39.705Z,593.00
2023-03-06T04:13:39.718Z,591.00
2023-03-06T04:14:39.732Z,591.00
2023-03-06T04:15:39.770Z,593.00
2023-03-06T04:16:39.811Z,594.00
2023-03-06T04:17:39.852Z,593.00
2023-03-06T04:18:39.878Z,592.00
2023-03-06T04:19:39.938Z,593.00
2023-03-06T04:20:39.947Z,593.00
2023-03-06T04:21:39.966Z,592.00
2023-03-06T04:22:40.022Z,591.00
2023-03-06T04:23:40.023Z,590.00
2023-03-06T04:24:40.066Z,589.00
2023-03-06T04:25:40.115Z,588.00
2023-03-06T04:26:40.142Z,585.00
2023-03-06T04:27:40.202Z,588.00
2023-03-06T04:28:40.198Z,590.00
2023-03-06T04:29:40.239Z,588.00
2023-03-06T04:30:40.277Z,587.00
2023-03-06T04:31:40.328Z,588.00
2023-03-06T04:32:40.418Z,591.00
2023-03-06T04:33:40.372Z,591.00
2023-03-06T04:34:40.380Z,590.00
2023-03-06T04:35:40.544Z,590.00
2023-03-06T04:36:40.477Z,590.00
2023-03-06T04:37:40.539Z,588.00
2023-03-06T04:38:40.631Z,588.00
2023-03-06T04:39:40.619Z,587.00
2023-03-06T04:40:40.617Z,585.00
2023-03-06T04:41:40.662Z,589.00
2023-03-06T04:42:40.695Z,587.00
2023-03-06T04:43:40.797Z,588.00
2023-03-06T04:44:40.801Z,587.00
2023-03-06T04:45:40.855Z,587.00
2023-03-06T04:46:40.867Z,586.00
2023-03-06T04:47:40.869Z,589.00
2023-03-06T04:48:40.902Z,589.00
2023-03-06T04:49:40.886Z,589.00
2023-03-06T04:50:40.874Z,587.00
2023-03-06T04:51:40.953Z,585.00
2023-03-06T04:52:40.960Z,585.00
2023-03-06T04:53:40.965Z,588.00
2023-03-06T04:54:40.977Z,590.00
2023-03-06T04:55:40.966Z,589.00
2023-03-06T04:56:40.998Z,590.00
2023-03-06T04:57:40.971Z,588.00
2023-03-06T04:58:40.980Z,586.00
2023-03-06T04:59:40.997Z,583.00
2023-03-06T05:00:41.020Z,581.00
2023-03-06T05:01:41.019Z,581.00
2023-03-06T05:02:40.984Z,581.00
2023-03-06T05:03:40.993Z,584.00
2023-03-06T05:04:40.973Z,586.00
2023-03-06T05:05:41.003Z,588.00
2023-03-06T05:06:41.000Z,588.00
2023-03-06T05:07:40.974Z,590.00
2023-03-06T05:08:41.008Z,591.00
2023-03-06T05:09:40.999Z,591.00
2023-03-06T05:10:41.004Z,590.00
2023-03-06T05:11:41.003Z,591.00
2023-03-06T05:12:40.993Z,590.00
2023-03-06T05:13:41.036Z,589.00
2023-03-06T05:14:41.029Z,591.00
2023-03-06T05:15:41.008Z,588.00
2023-03-06T05:16:41.083Z,588.00
2023-03-06T05:17:41.024Z,590.00
2023-03-06T05:18:41.060Z,589.00
2023-03-06T05:19:41.070Z,590.00
2023-03-06T05:20:41.076Z,593.00
2023-03-06T05:21:41.024Z,593.00
2023-03-06T05:22:41.061Z,594.00
2023-03-06T05:23:41.056Z,592.00
2023-03-06T05:24:41.073Z,594.00
2023-03-06T05:25:41.089Z,596.00
2023-03-06T05:26:41.068Z,596.00
2023-03-06T05:27:41.069Z,596.00
2023-03-06T05:28:41.082Z,596.00
2023-03-06T05:29:41.088Z,596.00
2023-03-06T05:30:41.098Z,595.00
2023-03-06T05:31:41.195Z,596.00
2023-03-06T05:32:41.251Z,597.00
2023-03-06T05:33:41.273Z,597.00
2023-03-06T05:34:41.342Z,595.00
2023-03-06T05:35:41.449Z,593.00
2023-03-06T05:36:41.453Z,594.00
2023-03-06T05:37:41.492Z,593.00
2023-03-06T05:38:41.505Z,591.00
2023-03-06T05:39:41.508Z,592.00
2023-03-06T05:40:41.529Z,593.00
2023-03-06T05:41:41.507Z,592.00
2023-03-06T05:42:41.514Z,595.00
2023-03-06T05:43:41.515Z,594.00
2023-03-06T05:44:41.556Z,595.00
2023-03-06T05:45:41.594Z,596.00
2023-03-06T05:46:41.527Z,593.00
2023-03-06T05:47:41.526Z,592.00
2023-03-06T05:48:41.528Z,592.00
2023-03-06T05:49:41.545Z,592.00
2023-03-06T05:50:41.515Z,595.00
2023-03-06T05:51:41.508Z,594.00
2023-03-06T05:52:41.536Z,593.00
2023-03-06T05:53:41.517Z,592.00
2023-03-06T05:54:41.556Z,593.00
2023-03-06T05:55:41.555Z,593.00
2023-03-06T05:56:42.909Z,592.00
2023-03-06T05:57:41.585Z,592.00
2023-03-06T05:58:41.657Z,593.00
2023-03-06T05:59:42.690Z,592.00
2023-03-06T06:00:41.786Z,591.00
2023-03-06T06:01:48.816Z,593.00
2023-03-06T06:02:41.870Z,594.00
2023-03-06T06:03:41.823Z,596.00
2023-03-06T06:04:41.812Z,596.00
2023-03-06T06:05:41.770Z,596.00
2023-03-06T06:06:41.784Z,596.00
2023-03-06T06:07:41.790Z,595.00
2023-03-06T06:08:41.829Z,596.00
2023-03-06T06:09:41.854Z,596.00
2023-03-06T06:10:41.755Z,596.00
2023-03-06T06:11:41.747Z,595.00
2023-03-06T06:12:41.804Z,592.00
2023-03-06T06:13:41.780Z,592.00
2023-03-06T06:14:41.748Z,592.00
2023-03-06T06:15:41.791Z,594.00
2023-03-06T06:16:41.711Z,591.00
2023-03-06T06:17:41.715Z,590.00
2023-03-06T06:18:41.700Z,592.00
2023-03-06T06:19:41.688Z,589.00
2023-03-06T06:20:41.726Z,588.00
2023-03-06T06:21:41.680Z,588.00
2023-03-06T06:22:41.695Z,590.00
2023-03-06T06:23:41.661Z,591.00
2023-03-06T06:24:41.649Z,589.00
2023-03-06T06:25:41.624Z,588.00
2023-03-06T06:26:41.665Z,586.00
2023-03-06T06:27:41.652Z,587.00
2023-03-06T06:28:41.617Z,587.00
2023-03-06T06:29:41.623Z,588.00
2023-03-06T06:30:42.037Z,589.00
2023-03-06T06:31:41.640Z,590.00
2023-03-06T06:32:41.696Z,587.00
2023-03-06T06:33:41.655Z,589.00
2023-03-06T06:35:41.614Z,644.00
2023-03-06T06:36:41.812Z,699.00
2023-03-06T06:37:41.584Z,751.00
2023-03-06T06:38:41.548Z,770.00
2023-03-06T06:39:41.571Z,770.00
2023-03-06T06:40:41.560Z,779.00
2023-03-06T06:42:02.257Z,813.00
2023-03-06T06:42:42.543Z,835.00
2023-03-06T06:43:41.536Z,1032.00
2023-03-06T06:44:41.512Z,1259.00
2023-03-06T06:45:41.527Z,963.00
2023-03-06T06:47:42.532Z,1097.00
2023-03-06T06:48:41.679Z,1019.00
2023-03-06T06:49:41.533Z,1158.00
2023-03-06T06:50:41.576Z,1167.00
2023-03-06T06:51:41.511Z,1306.00
2023-03-06T06:52:41.474Z,1174.00
2023-03-06T06:53:41.496Z,1196.00
2023-03-06T06:54:41.477Z,1215.00
2023-03-06T06:55:41.477Z,1233.00
2023-03-06T06:56:41.451Z,1354.00
2023-03-06T06:57:41.436Z,1290.00
2023-03-06T06:58:41.426Z,1258.00
2023-03-06T06:59:41.489Z,1278.00
2023-03-06T07:00:41.417Z,1384.00
2023-03-06T07:01:41.446Z,1348.00
2023-03-06T07:02:41.423Z,1384.00
2023-03-06T07:03:41.443Z,1400.00
2023-03-06T07:04:56.193Z,1402.00
2023-03-06T07:05:42.400Z,1404.00
2023-03-06T07:06:41.401Z,1405.00
2023-03-06T07:07:41.375Z,1411.00
2023-03-06T07:08:41.366Z,1607.00
2023-03-06T07:09:41.476Z,1565.00
2023-03-06T07:10:41.382Z,1791.00
2023-03-06T07:11:41.855Z,1551.00
2023-03-06T07:12:41.361Z,1676.00
2023-03-06T07:13:41.322Z,1599.00
2023-03-06T07:14:41.374Z,1575.00
2023-03-06T07:15:41.374Z,1585.00
2023-03-06T07:16:41.324Z,1591.00
2023-03-06T07:17:41.322Z,1597.00
2023-03-06T07:18:41.292Z,1611.00
2023-03-06T07:19:41.359Z,1620.00
2023-03-06T07:20:41.304Z,1693.00
2023-03-06T07:21:41.390Z,1704.00
2023-03-06T07:22:50.845Z,1709.00
2023-03-06T07:23:42.347Z,1752.00
2023-03-06T07:24:41.365Z,1884.00
2023-03-06T07:25:41.321Z,1847.00
2023-03-06T07:26:41.336Z,2063.00
2023-03-06T07:27:41.361Z,2074.00
2023-03-06T07:28:51.956Z,2054.00
2023-03-06T07:29:42.292Z,2525.00
2023-03-06T07:30:41.301Z,2232.00
2023-03-06T07:31:41.362Z,2137.00
2023-03-06T07:32:41.328Z,2127.00
2023-03-06T07:33:41.284Z,1933.00
2023-03-06T07:34:41.286Z,1908.00
2023-03-06T07:35:41.345Z,1979.00
2023-03-06T07:36:41.355Z,1921.00
2023-03-06T07:37:41.309Z,1775.00
2023-03-06T07:38:41.299Z,1781.00
2023-03-06T07:39:41.280Z,1752.00
2023-03-06T07:40:41.321Z,1719.00
2023-03-06T07:41:41.868Z,1754.00
2023-03-06T07:42:41.254Z,1781.00
2023-03-06T07:43:41.313Z,1782.00
2023-03-06T07:44:41.233Z,1786.00
2023-03-06T07:45:41.211Z,1864.00
2023-03-06T07:46:41.534Z,1854.00
2023-03-06T07:47:41.309Z,1855.00
2023-03-06T07:48:41.374Z,1872.00
2023-03-06T07:49:41.485Z,2148.00
2023-03-06T07:50:41.463Z,1955.00
2023-03-06T07:53:41.579Z,1944.00
2023-03-06T07:54:41.631Z,2066.00
2023-03-06T07:55:42.044Z,2050.00
2023-03-06T07:56:41.945Z,1733.00
2023-03-06T07:58:41.718Z,1686.00
2023-03-06T07:59:41.808Z,1714.00
2023-03-06T08:00:41.839Z,1695.00
2023-03-06T08:01:41.908Z,2219.00
2023-03-06T08:02:41.941Z,1598.00
2023-03-06T08:03:41.832Z,1502.00
2023-03-06T08:04:41.862Z,1487.00
2023-03-06T08:05:41.860Z,1428.00
2023-03-06T08:06:41.875Z,1355.00
2023-03-06T08:36:42.613Z,704.00
2023-03-06T09:41:44.947Z,1036.00
2023-03-06T11:18:49.017Z,1953.00
2023-03-06T11:38:48.788Z,2217.00
2023-03-06T11:39:48.962Z,2233.00
2023-03-06T11:40:48.799Z,2068.00
2023-03-06T11:41:48.797Z,2058.00
2023-03-06T11:42:48.825Z,2052.00
2023-03-06T11:43:48.838Z,2047.00
2023-03-06T11:44:48.970Z,2013.00
2023-03-06T11:45:48.989Z,1995.00
2023-03-06T11:46:48.998Z,1984.00
2023-03-06T11:47:49.040Z,1975.00
2023-03-06T11:48:49.055Z,1970.00
2023-03-06T11:49:49.455Z,1950.00
2023-03-06T11:50:49.120Z,1934.00
2023-03-06T11:51:49.170Z,1923.00
2023-03-06T11:52:49.248Z,1915.00
2023-03-06T11:53:49.256Z,1902.00
2023-03-06T11:54:49.483Z,1888.00
2023-03-06T11:55:49.369Z,1858.00
2023-03-06T11:56:49.372Z,1852.00
2023-03-06T11:57:49.421Z,1849.00
2023-03-06T11:58:49.486Z,1839.00
2023-03-06T11:59:49.549Z,1825.00
2023-03-06T12:00:49.602Z,1811.00
2023-03-06T12:01:49.670Z,1788.00
2023-03-06T12:02:49.717Z,1782.00
2023-03-06T12:03:49.781Z,1776.00
2023-03-06T12:04:49.998Z,1767.00
2023-03-06T12:05:49.996Z,1760.00
2023-03-06T12:06:49.973Z,1739.00
2023-03-06T12:07:50.078Z,1726.00
2023-03-06T12:08:50.075Z,1714.00
2023-03-06T12:09:50.111Z,1713.00
2023-03-06T12:10:51.866Z,1705.00
2023-03-06T12:11:50.317Z,1693.00
2023-03-06T12:12:50.650Z,1684.00
2023-03-06T12:14:50.477Z,1650.00
2023-03-06T12:15:50.533Z,1643.00
2023-03-06T12:16:50.529Z,1636.00
2023-03-06T12:17:50.561Z,1627.00
2023-03-06T12:18:50.557Z,1608.00
2023-03-06T12:19:50.991Z,1600.00
2023-03-06T12:20:50.971Z,1588.00
2023-03-06T12:21:50.671Z,1582.00
2023-03-06T12:22:57.616Z,1574.00
2023-03-06T12:23:51.769Z,1566.00
2023-03-06T12:24:50.732Z,1559.00
2023-03-06T12:25:51.011Z,1551.00
2023-03-06T12:26:50.715Z,1543.00
2023-03-06T12:27:50.709Z,1529.00
2023-03-06T12:28:50.720Z,1520.00
2023-03-06T12:29:50.792Z,1515.00
2023-03-06T12:30:51.053Z,1506.00
2023-03-06T12:31:50.764Z,1514.00
2023-03-06T12:32:50.729Z,1507.00
2023-03-06T12:33:50.696Z,1427.00
2023-03-06T12:34:50.674Z,1431.00
2023-03-06T12:35:51.020Z,1439.00
2023-03-06T12:36:50.672Z,1420.00
2023-03-06T12:37:50.804Z,1371.00
2023-03-06T12:38:50.637Z,1316.00
2023-03-06T12:39:50.634Z,1244.00
2023-03-06T12:40:50.642Z,1191.00
2023-03-06T12:41:50.656Z,1192.00
2023-03-06T12:42:50.662Z,1162.00
2023-03-06T12:43:50.682Z,1145.00
2023-03-06T12:44:50.743Z,1161.00
2023-03-06T12:45:50.791Z,1159.00
2023-03-06T12:46:50.749Z,1149.00
2023-03-06T12:47:50.790Z,1138.00
2023-03-06T12:48:50.814Z,1125.00
2023-03-06T12:49:50.839Z,1104.00
2023-03-06T12:50:50.879Z,1099.00
2023-03-06T12:51:50.899Z,1100.00
2023-03-06T12:52:50.907Z,1094.00
2023-03-06T12:53:50.919Z,1087.00
2023-03-06T12:54:50.953Z,1081.00
2023-03-06T12:55:50.957Z,1078.00
2023-03-06T12:56:50.970Z,1073.00
2023-03-06T12:57:50.984Z,1068.00
2023-03-06T12:58:51.052Z,1065.00
2023-03-06T12:59:51.034Z,1059.00
2023-03-06T13:00:55.281Z,1056.00
2023-03-06T13:01:52.134Z,1048.00
2023-03-06T13:02:51.094Z,1043.00
2023-03-06T13:03:51.013Z,1038.00
2023-03-06T13:04:51.046Z,1039.00
2023-03-06T13:05:51.087Z,1031.00
2023-03-06T13:06:51.616Z,1029.00
2023-03-06T13:07:51.113Z,1029.00
2023-03-06T13:08:51.137Z,1027.00
2023-03-06T13:09:51.148Z,1023.00
2023-03-06T13:10:51.167Z,1011.00
2023-03-06T13:11:51.170Z,999.00
2023-03-06T13:12:51.271Z,950.00
2023-03-06T13:13:51.236Z,959.00
2023-03-06T13:14:54.565Z,944.00
2023-03-06T13:15:51.261Z,918.00
2023-03-06T13:16:51.264Z,915.00
2023-03-06T13:17:51.272Z,917.00
2023-03-06T13:18:51.237Z,917.00
2023-03-06T13:19:51.272Z,917.00
2023-03-06T13:20:51.227Z,919.00
2023-03-06T13:21:51.234Z,917.00
2023-03-06T13:22:51.238Z,912.00
2023-03-06T13:23:51.245Z,910.00
2023-03-06T13:24:54.926Z,907.00
2023-03-06T13:25:51.244Z,904.00
2023-03-06T13:26:51.218Z,902.00
2023-03-06T13:27:51.197Z,902.00
2023-03-06T13:28:51.168Z,898.00
2023-03-06T13:29:51.173Z,899.00
2023-03-06T13:30:53.021Z,897.00
2023-03-06T15:48:18.837Z,1589.00
2023-03-06T15:50:18.799Z,1563.00
2023-03-06T15:51:18.840Z,1688.00
2023-03-06T15:52:18.823Z,1638.00
2023-03-06T15:53:18.812Z,1620.00
2023-03-06T15:54:18.841Z,1617.00
2023-03-06T15:55:18.875Z,1627.00
2023-03-06T15:56:19.003Z,1648.00
2023-03-06T15:57:19.107Z,1750.00
2023-03-06T15:58:19.197Z,1682.00
2023-03-06T15:59:19.234Z,1665.00
2023-03-06T16:00:27.390Z,1667.00
2023-03-06T16:01:20.370Z,1687.00
2023-03-06T16:02:19.337Z,1813.00
2023-03-06T16:03:19.314Z,1695.00
2023-03-06T16:04:19.377Z,1721.00
2023-03-06T16:05:19.329Z,1723.00
2023-03-06T16:06:19.313Z,1736.00
2023-03-06T16:07:19.339Z,1745.00
2023-03-06T16:08:19.304Z,1751.00
2023-03-06T16:09:19.290Z,1868.00
2023-03-06T16:10:19.322Z,1880.00
2023-03-06T16:11:19.265Z,1839.00
2023-03-06T16:12:19.336Z,2100.00
2023-03-06T16:13:19.385Z,1975.00
2023-03-06T16:14:19.421Z,1980.00
2023-03-06T16:15:19.450Z,1715.00
2023-03-06T16:16:19.538Z,1523.00
2023-03-06T16:17:19.469Z,1319.00
2023-03-06T16:18:19.519Z,1005.00
2023-03-06T16:19:25.969Z,1056.00
2023-03-06T16:20:20.563Z,992.00
2023-03-06T16:21:19.548Z,955.00
2023-03-06T16:22:19.530Z,931.00
2023-03-06T16:23:19.556Z,906.00
2023-03-06T16:24:19.516Z,973.00
2023-03-06T16:25:19.523Z,959.00
2023-03-06T16:26:19.508Z,849.00
2023-03-06T16:27:19.552Z,814.00
2023-03-06T16:28:19.523Z,823.00
2023-03-06T16:29:19.528Z,816.00
2023-03-06T16:30:19.498Z,807.00
2023-03-06T16:31:19.475Z,792.00
2023-03-06T16:32:19.585Z,778.00
2023-03-06T16:33:19.542Z,719.00
2023-03-06T16:34:19.761Z,725.00
2023-03-06T16:35:19.678Z,720.00
2023-03-06T16:36:19.642Z,725.00
2023-03-06T16:37:19.638Z,695.00
2023-03-06T16:38:19.663Z,681.00
2023-03-06T16:39:19.652Z,724.00
2023-03-06T16:40:19.710Z,1120.00
2023-03-06T16:41:19.716Z,986.00
2023-03-06T16:42:19.749Z,946.00
2023-03-06T16:43:19.788Z,946.00
2023-03-06T16:44:19.847Z,1016.00
2023-03-06T16:45:19.832Z,1027.00
2023-03-06T16:46:19.898Z,1041.00
2023-03-06T16:47:19.912Z,1074.00
2023-03-06T16:48:19.999Z,1101.00
2023-03-06T16:49:20.022Z,1139.00
2023-03-06T16:50:19.976Z,1159.00
2023-03-06T16:51:19.999Z,1169.00
2023-03-06T16:52:20.044Z,1173.00
2023-03-06T16:53:20.115Z,1214.00
2023-03-06T16:54:20.184Z,1267.00
2023-03-06T16:55:20.173Z,1296.00
2023-03-06T16:56:20.205Z,1314.00
2023-03-06T16:57:20.251Z,1387.00
2023-03-06T16:58:20.285Z,1375.00
2023-03-06T16:59:20.277Z,1365.00
2023-03-06T17:00:20.313Z,1351.00
2023-03-06T17:01:20.356Z,1329.00
2023-03-06T17:02:20.377Z,1269.00
2023-03-06T17:03:20.367Z,1270.00
2023-03-06T17:04:20.378Z,1241.00
2023-03-06T17:05:20.388Z,1111.00
2023-03-06T17:06:20.409Z,1104.00
2023-03-06T17:07:20.439Z,1099.00
2023-03-06T17:08:20.489Z,1103.00
2023-03-06T17:09:20.496Z,1100.00
2023-03-06T17:10:20.519Z,1108.00
2023-03-06T17:11:20.560Z,1101.00
2023-03-06T17:12:20.544Z,1085.00
2023-03-06T17:13:20.599Z,1093.00
2023-03-06T17:14:20.625Z,1092.00
2023-03-06T17:15:20.610Z,1075.00
2023-03-06T17:16:20.757Z,1089.00
2023-03-06T17:17:20.709Z,1086.00
2023-03-06T17:18:20.690Z,1080.00
2023-03-06T17:19:20.717Z,1077.00
2023-03-06T17:20:20.750Z,1075.00
2023-03-06T17:21:20.818Z,1074.00
2023-03-06T17:22:20.813Z,1071.00
2023-03-06T17:23:20.874Z,1073.00
2023-03-06T17:24:20.893Z,1071.00
2023-03-06T17:25:20.922Z,1064.00
2023-03-06T17:26:20.926Z,1056.00
2023-03-06T17:27:20.959Z,1054.00
2023-03-06T17:28:20.979Z,1046.00
2023-03-06T17:29:21.031Z,1042.00
2023-03-06T17:30:21.065Z,1038.00
2023-03-06T17:31:21.115Z,1032.00
2023-03-06T17:32:21.148Z,1026.00
2023-03-06T17:33:21.735Z,1022.00
2023-03-06T17:34:23.082Z,1018.00
2023-03-06T17:35:21.172Z,1017.00
2023-03-06T17:36:21.169Z,1012.00
2023-03-06T17:37:21.200Z,1009.00
2023-03-06T17:38:21.129Z,1005.00
2023-03-06T17:39:21.111Z,997.00
2023-03-06T17:40:21.123Z,994.00
2023-03-06T17:41:21.146Z,988.00
2023-03-06T17:42:21.115Z,981.00
2023-03-06T17:43:21.106Z,982.00
2023-03-06T17:44:21.099Z,980.00
2023-03-06T17:45:21.077Z,976.00
2023-03-06T17:46:21.120Z,974.00
2023-03-06T17:47:21.078Z,967.00
2023-03-06T17:48:21.093Z,964.00
2023-03-06T17:49:21.068Z,961.00
2023-03-06T17:50:21.058Z,958.00
2023-03-06T17:51:21.055Z,957.00
2023-03-06T17:52:21.025Z,954.00
2023-03-06T17:53:21.031Z,950.00
2023-03-06T17:54:21.083Z,946.00
2023-03-06T17:55:21.047Z,947.00
2023-03-06T17:56:21.039Z,942.00
2023-03-06T17:57:21.029Z,938.00
2023-03-06T17:58:21.023Z,936.00
2023-03-06T17:59:20.995Z,930.00
2023-03-06T18:00:20.971Z,927.00
2023-03-06T18:01:20.994Z,928.00
2023-03-06T18:02:20.992Z,925.00
2023-03-06T18:03:21.107Z,923.00
2023-03-06T18:04:20.964Z,922.00
2023-03-06T18:05:20.971Z,920.00
2023-03-06T18:06:20.994Z,920.00
2023-03-06T18:07:20.967Z,917.00
2023-03-06T18:08:20.942Z,913.00
2023-03-06T18:09:20.930Z,908.00
2023-03-06T18:10:20.936Z,903.00
2023-03-06T18:11:20.922Z,902.00
2023-03-06T18:12:21.073Z,900.00
2023-03-06T18:13:20.898Z,896.00
2023-03-06T18:14:20.906Z,892.00
2023-03-06T18:15:20.900Z,890.00
2023-03-06T18:16:21.019Z,887.00
2023-03-06T18:17:20.885Z,889.00
2023-03-06T18:18:20.886Z,891.00
2023-03-06T18:19:20.880Z,888.00
2023-03-06T18:20:20.878Z,888.00
2023-03-06T18:21:20.885Z,880.00
2023-03-06T18:22:20.836Z,881.00
2023-03-06T18:23:20.843Z,879.00
2023-03-06T18:24:20.850Z,877.00
2023-03-06T18:25:20.837Z,873.00
2023-03-06T18:26:20.839Z,870.00
2023-03-06T18:27:20.837Z,867.00
2023-03-06T18:28:20.819Z,864.00
2023-03-06T18:29:20.816Z,862.00
2023-03-06T18:30:20.830Z,860.00
2023-03-06T18:31:20.926Z,859.00
2023-03-06T18:32:20.962Z,856.00
2023-03-06T18:33:20.973Z,854.00
2023-03-06T18:34:21.011Z,854.00
2023-03-06T18:35:21.103Z,853.00
2023-03-06T18:36:21.117Z,849.00
2023-03-06T18:37:21.124Z,843.00
2023-03-06T18:38:21.190Z,839.00
2023-03-06T18:39:21.229Z,836.00
2023-03-06T18:40:22.908Z,833.00
2023-03-06T18:41:21.265Z,829.00
2023-03-06T18:42:21.227Z,826.00
2023-03-06T18:43:21.216Z,823.00
2023-03-06T18:44:21.221Z,821.00
2023-03-06T18:45:21.235Z,818.00
2023-03-06T18:46:21.197Z,816.00
2023-03-06T18:47:21.177Z,815.00
2023-03-06T18:48:21.166Z,810.00
2023-03-06T18:49:21.245Z,809.00
2023-03-06T18:50:21.174Z,805.00
2023-03-06T18:51:21.189Z,805.00
2023-03-06T18:52:21.176Z,802.00
2023-03-06T18:53:21.175Z,800.00
2023-03-06T18:54:21.190Z,797.00
2023-03-06T18:55:21.366Z,797.00
2023-03-06T18:56:21.179Z,796.00
2023-03-06T18:57:21.131Z,796.00
2023-03-06T18:58:21.110Z,795.00
2023-03-06T18:59:21.123Z,793.00
2023-03-06T19:00:21.124Z,792.00
2023-03-06T19:01:21.172Z,791.00
2023-03-06T19:02:21.110Z,791.00
2023-03-06T19:03:21.084Z,790.00
2023-03-06T19:04:21.111Z,788.00
2023-03-06T19:05:21.092Z,789.00
2023-03-06T19:06:21.084Z,786.00
2023-03-06T19:07:21.072Z,785.00
2023-03-06T19:08:21.072Z,784.00
2023-03-06T19:09:21.053Z,780.00
2023-03-06T19:10:21.068Z,777.00
2023-03-06T19:11:21.085Z,778.00
2023-03-06T19:12:21.065Z,777.00
2023-03-06T19:13:21.040Z,774.00
2023-03-06T19:14:21.023Z,771.00
2023-03-06T19:15:21.020Z,770.00
2023-03-06T19:16:21.042Z,768.00
2023-03-06T19:17:21.024Z,764.00
2023-03-06T19:18:21.030Z,761.00
2023-03-06T19:19:21.001Z,759.00
2023-03-06T19:20:20.994Z,760.00
2023-03-06T19:21:21.018Z,758.00
2023-03-06T19:22:20.992Z,760.00
2023-03-06T19:23:20.990Z,759.00
2023-03-06T19:24:20.984Z,760.00
2023-03-06T19:25:21.051Z,758.00
2023-03-06T19:26:21.153Z,760.00
2023-03-06T19:27:21.145Z,762.00
2023-03-06T19:28:21.197Z,760.00
2023-03-06T19:29:21.258Z,759.00
2023-03-06T19:30:21.297Z,752.00
2023-03-06T19:31:21.380Z,751.00
2023-03-06T19:32:21.405Z,751.00
2023-03-06T19:33:21.385Z,750.00
2023-03-06T19:34:21.419Z,746.00
2023-03-06T19:35:21.441Z,743.00
2023-03-06T19:36:21.470Z,741.00
2023-03-06T19:37:21.477Z,741.00
2023-03-06T19:38:21.488Z,736.00
2023-03-06T19:39:21.544Z,732.00
2023-03-06T19:40:21.545Z,730.00
2023-03-06T19:41:21.559Z,728.00
2023-03-06T19:42:21.586Z,729.00
2023-03-06T19:43:21.611Z,727.00
2023-03-06T19:44:21.601Z,726.00
2023-03-06T19:45:21.638Z,727.00
2023-03-06T19:46:21.732Z,730.00
2023-03-06T19:47:21.699Z,729.00
2023-03-06T19:48:22.804Z,726.00
2023-03-06T19:49:21.772Z,726.00
2023-03-06T19:50:21.851Z,726.00
2023-03-06T19:51:21.906Z,726.00
2023-03-06T19:52:21.916Z,726.00
2023-03-06T21:59:28.835Z,640.00
2023-03-06T22:00:28.840Z,640.00
2023-03-06T22:01:29.088Z,639.00
